Terminal Aerodrome Forecast
Issued by NWS

Home | Current Version | Previous Version | Text Only | Print | Product List | Glossary On
Versions: 1 2 3 4 5 6 7 8 9 10 11 12 13 14 15 16 17 18 19
000
FTUS42 KMLB 190524
TAFFPR
TAF
KFPR 190524Z 1906/2006 00000KT P6SM FEW050
     FM191500 25008KT P6SM FEW035
     FM192300 28010KT P6SM BKN050
     FM200100 32006KT P6SM BKN040=

USA.gov is the U.S. government's official web portal to all federal, state and local government web resources and services.